Time;durP1;ratioP1;P1;durP2;ratioP2;P2;SDS_P1;SDS_P2;PMS_P1;PMS_P2;Temp;Humidity;BMP_temperature;BMP_pressure;BME280_temperature;BME280_humidity;BME280_pressure;Samples;Min_cycle;Max_cycle;Signal;HPM_P1;HPM_P2
2023/11/27 00:02:21;;;;;;;14.35;8.30;;;;;;;-2.12;100.00;96375.88;5005525;28;22323;-70
2023/11/27 00:04:46;;;;;;;15.25;10.38;;;;;;;-2.01;100.00;96378.41;5010570;28;20050;-72
2023/11/27 00:07:12;;;;;;;15.25;9.30;;;;;;;-2.03;100.00;96375.22;5006448;28;20115;-70
2023/11/27 00:09:37;;;;;;;15.98;9.32;;;;;;;-1.97;100.00;96380.19;5019080;28;20053;-72
2023/11/27 00:12:03;;;;;;;15.70;9.05;;;;;;;-1.87;100.00;96373.88;5014543;28;20106;-71
2023/11/27 00:14:29;;;;;;;16.38;9.60;;;;;;;-1.83;100.00;96372.19;5007583;28;20065;-73
2023/11/27 00:16:54;;;;;;;15.02;9.05;;;;;;;-1.84;100.00;96367.09;5020176;28;20041;-73
2023/11/27 00:19:20;;;;;;;16.65;9.27;;;;;;;-1.86;100.00;96375.44;4976775;28;20048;-70
2023/11/27 00:21:45;;;;;;;14.85;8.57;;;;;;;-1.81;100.00;96382.63;5023088;28;20463;-74
2023/11/27 00:24:11;;;;;;;16.15;9.10;;;;;;;-1.83;100.00;96376.75;5014707;28;20049;-74
2023/11/27 00:26:36;;;;;;;20.20;9.30;;;;;;;-1.76;100.00;96377.97;5019601;28;20047;-73
2023/11/27 00:29:02;;;;;;;16.08;8.63;;;;;;;-1.76;100.00;96377.97;5004689;28;20508;-72
2023/11/27 00:31:27;;;;;;;15.48;9.15;;;;;;;-1.72;100.00;96375.47;5011239;28;20136;-71
2023/11/27 00:33:53;;;;;;;15.40;9.65;;;;;;;-1.60;100.00;96373.13;4982160;28;20443;-72
2023/11/27 00:36:18;;;;;;;16.33;8.85;;;;;;;-1.49;100.00;96362.22;5009180;28;20041;-72
2023/11/27 00:38:43;;;;;;;13.85;8.57;;;;;;;-1.54;100.00;96363.88;5021701;28;20049;-74
2023/11/27 00:41:14;;;;;;;14.07;8.55;;;;;;;-1.51;100.00;96361.69;4996266;28;20034;-73
2023/11/27 00:43:41;;;;;;;15.10;8.27;;;;;;;-1.54;100.00;96363.88;5002536;28;20045;-73
2023/11/27 00:46:07;;;;;;;15.38;8.63;;;;;;;-1.93;100.00;96356.22;4999910;28;20049;-72
2023/11/27 00:48:33;;;;;;;13.38;9.40;;;;;;;-1.94;100.00;96352.75;5023109;28;20046;-72
2023/11/27 00:50:58;;;;;;;14.48;9.02;;;;;;;-1.76;100.00;96353.78;5007963;28;20065;-73
2023/11/27 00:53:24;;;;;;;12.85;8.27;;;;;;;-1.50;100.00;96352.53;5005589;28;20084;-72
2023/11/27 00:55:49;;;;;;;17.52;8.80;;;;;;;-1.44;100.00;96345.97;5019632;28;20041;-72
2023/11/27 00:58:15;;;;;;;12.75;8.15;;;;;;;-1.26;100.00;96345.09;5009621;28;20029;-72
2023/11/27 01:00:40;;;;;;;13.35;8.05;;;;;;;-1.29;100.00;96342.22;5014501;28;20045;-72
2023/11/27 01:03:06;;;;;;;14.23;9.05;;;;;;;-1.30;100.00;96341.41;5003780;28;20046;-73
2023/11/27 01:05:32;;;;;;;17.70;9.13;;;;;;;-1.25;100.00;96337.81;5028121;28;20053;-74
2023/11/27 01:07:58;;;;;;;17.73;8.85;;;;;;;-1.19;100.00;96336.63;5030069;28;20037;-72
2023/11/27 01:10:23;;;;;;;19.17;9.20;;;;;;;-1.22;100.00;96343.41;5014093;28;20922;-71
2023/11/27 01:12:49;;;;;;;14.73;8.18;;;;;;;-1.26;100.00;96328.97;5001768;28;20130;-74
2023/11/27 01:15:14;;;;;;;17.65;9.00;;;;;;;-1.30;100.00;96330.66;5011173;28;20068;-71
2023/11/27 01:17:41;;;;;;;14.85;8.90;;;;;;;-1.33;100.00;96335.81;5018411;28;20056;-71
2023/11/27 01:20:10;;;;;;;15.60;8.82;;;;;;;-1.32;100.00;96334.75;4991971;28;20049;-71
2023/11/27 01:22:36;;;;;;;13.85;8.18;;;;;;;-1.19;100.00;96323.19;5017901;28;20111;-71
2023/11/27 01:25:03;;;;;;;13.32;8.80;;;;;;;-1.26;100.00;96325.47;5020330;28;20041;-71
2023/11/27 01:27:30;;;;;;;15.27;8.73;;;;;;;-1.30;100.00;96319.91;4997905;28;20053;-74
2023/11/27 01:29:56;;;;;;;15.50;8.52;;;;;;;-1.38;100.00;96323.31;5023179;28;20052;-72
2023/11/27 01:32:24;;;;;;;20.63;8.65;;;;;;;-1.34;100.00;96313.53;5003795;28;20037;-72
2023/11/27 01:34:53;;;;;;;16.50;8.53;;;;;;;-1.37;100.00;96298.00;5020412;28;20045;-72
2023/11/27 01:37:19;;;;;;;13.95;8.63;;;;;;;-1.30;100.00;96301.09;5000183;28;20574;-71
2023/11/27 01:39:44;;;;;;;15.63;9.27;;;;;;;-1.25;100.00;96292.94;4987946;28;20108;-71
2023/11/27 01:42:10;;;;;;;16.20;8.00;;;;;;;-1.25;100.00;96295.63;5016120;28;20037;-70
2023/11/27 01:44:39;;;;;;;15.10;9.20;;;;;;;-1.23;100.00;96298.78;5021871;28;20038;-70
2023/11/27 01:47:05;;;;;;;18.55;8.38;;;;;;;-1.19;100.00;96293.63;4999435;28;20099;-70
2023/11/27 01:49:32;;;;;;;15.90;8.07;;;;;;;-1.23;100.00;96279.19;5021248;28;20069;-70
2023/11/27 01:51:58;;;;;;;21.90;9.75;;;;;;;-1.74;100.00;96272.97;5003946;28;20397;-72
2023/11/27 01:54:24;;;;;;;15.23;9.65;;;;;;;-2.00;100.00;96264.56;4992656;28;20049;-72
2023/11/27 01:56:51;;;;;;;17.33;9.13;;;;;;;-2.15;100.00;96263.75;5002818;28;20041;-71
2023/11/27 01:59:17;;;;;;;23.65;11.13;;;;;;;-2.25;100.00;96255.06;4999773;28;20033;-71
2023/11/27 02:01:43;;;;;;;18.27;10.00;;;;;;;-2.27;100.00;96250.00;5005051;28;20077;-71
2023/11/27 02:04:08;;;;;;;22.23;11.07;;;;;;;-2.31;100.00;96249.00;4989238;28;20037;-72
2023/11/27 02:06:34;;;;;;;16.90;9.80;;;;;;;-2.29;100.00;96243.34;5004014;28;20060;-73
2023/11/27 02:09:00;;;;;;;19.77;9.68;;;;;;;-2.13;100.00;96250.03;5022008;28;20041;-73
2023/11/27 02:11:26;;;;;;;15.88;10.13;;;;;;;-1.95;100.00;96251.84;5010375;28;20050;-72
2023/11/27 02:13:51;;;;;;;13.45;8.90;;;;;;;-1.71;100.00;96242.03;5011713;28;20042;-72
2023/11/27 02:16:17;;;;;;;16.45;9.07;;;;;;;-1.62;100.00;96241.03;5002864;28;20034;-72
2023/11/27 02:18:43;;;;;;;15.98;10.25;;;;;;;-1.57;100.00;96238.25;5016190;28;20076;-73
2023/11/27 02:21:10;;;;;;;15.23;8.65;;;;;;;-1.51;100.00;96232.75;5013918;28;20614;-72
2023/11/27 02:23:37;;;;;;;14.82;8.32;;;;;;;-1.48;100.00;96232.16;5019412;28;20072;-72
2023/11/27 02:26:06;;;;;;;18.90;9.05;;;;;;;-1.42;100.00;96225.59;5008723;28;20486;-71
2023/11/27 02:28:32;;;;;;;13.07;8.32;;;;;;;-1.38;100.00;96231.97;4997281;28;20459;-72
2023/11/27 02:30:58;;;;;;;15.23;8.27;;;;;;;-1.41;100.00;96229.88;4993514;28;20037;-72
2023/11/27 02:33:25;;;;;;;14.70;8.38;;;;;;;-1.41;100.00;96221.81;5010587;28;20513;-73
2023/11/27 02:35:51;;;;;;;16.25;8.73;;;;;;;-1.37;100.00;96228.16;4991736;28;20045;-72
2023/11/27 02:38:17;;;;;;;15.60;9.38;;;;;;;-1.35;100.00;96226.78;4982164;28;20068;-73
2023/11/27 02:40:42;;;;;;;11.23;8.73;;;;;;;-1.36;100.00;96217.13;5021857;28;20041;-72
2023/11/27 02:43:09;;;;;;;15.13;9.52;;;;;;;-1.31;100.00;96210.84;4999578;28;20038;-72
2023/11/27 02:45:35;;;;;;;14.50;8.73;;;;;;;-1.29;100.00;96208.66;5021055;28;20041;-72
2023/11/27 02:48:01;;;;;;;15.50;9.15;;;;;;;-1.27;100.00;96203.78;5020545;28;20044;-72
2023/11/27 02:50:27;;;;;;;15.55;8.88;;;;;;;-1.24;100.00;96197.81;4992579;28;20057;-73
2023/11/27 02:52:52;;;;;;;13.82;8.70;;;;;;;-1.17;100.00;96184.75;5008939;28;20401;-72
2023/11/27 02:55:18;;;;;;;15.13;8.63;;;;;;;-1.37;100.00;96175.25;5010466;28;20100;-73
2023/11/27 02:57:43;;;;;;;13.75;8.45;;;;;;;-1.60;100.00;96182.44;4998331;28;20045;-72
2023/11/27 03:00:12;;;;;;;15.65;8.75;;;;;;;-1.76;100.00;96173.91;5005470;28;20202;-72
2023/11/27 03:02:38;;;;;;;18.40;9.40;;;;;;;-1.87;100.00;96172.53;5007001;28;20034;-72
2023/11/27 03:05:07;;;;;;;18.83;9.90;;;;;;;-2.01;100.00;96158.31;5016607;28;20044;-70
2023/11/27 03:07:36;;;;;;;13.70;8.85;;;;;;;-2.01;100.00;96169.06;5021183;28;20036;-72
2023/11/27 03:10:03;;;;;;;12.43;8.77;;;;;;;-1.90;100.00;96166.97;5004357;28;20042;-71
2023/11/27 03:12:28;;;;;;;12.85;8.60;;;;;;;-1.72;100.00;96163.38;5016320;28;20045;-73
2023/11/27 03:14:54;;;;;;;10.82;7.35;;;;;;;-1.56;100.00;96159.25;5002738;28;20041;-73
2023/11/27 03:17:21;;;;;;;12.40;7.82;;;;;;;-1.44;100.00;96153.38;5014744;28;20038;-73
2023/11/27 03:19:46;;;;;;;14.52;8.00;;;;;;;-1.31;100.00;96151.75;5003653;28;20045;-73
2023/11/27 03:22:12;;;;;;;15.45;8.43;;;;;;;-1.23;100.00;96155.59;4980718;28;20045;-72
2023/11/27 03:24:37;;;;;;;10.85;7.55;;;;;;;-1.14;100.00;96153.75;5018111;28;20049;-73
2023/11/27 03:27:04;;;;;;;10.27;7.20;;;;;;;-1.07;100.00;96151.44;5010685;28;20088;-72
2023/11/27 03:29:29;;;;;;;11.48;6.82;;;;;;;-1.02;100.00;96148.66;4992992;28;20042;-73
2023/11/27 03:31:55;;;;;;;12.43;6.88;;;;;;;-0.97;100.00;96143.16;5001362;28;20103;-73
2023/11/27 03:34:21;;;;;;;12.10;6.60;;;;;;;-1.00;100.00;96130.31;5006999;28;20420;-72
2023/11/27 03:36:46;;;;;;;13.00;6.93;;;;;;;-0.90;100.00;96128.47;4997338;28;20111;-72
2023/11/27 03:39:11;;;;;;;10.45;7.13;;;;;;;-0.89;100.00;96124.69;5006002;28;20589;-72
2023/11/27 03:41:37;;;;;;;9.15;6.32;;;;;;;-0.91;100.00;96121.53;5016792;28;20289;-72
2023/11/27 03:44:02;;;;;;;12.43;7.10;;;;;;;-0.90;100.00;96126.59;5011928;28;20042;-71
2023/11/27 03:46:28;;;;;;;12.98;6.45;;;;;;;-1.13;100.00;96116.94;5019139;28;20068;-71
2023/11/27 03:48:53;;;;;;;10.70;7.07;;;;;;;-1.23;100.00;96117.97;5006087;28;20661;-70
2023/11/27 03:51:18;;;;;;;10.68;7.00;;;;;;;-1.24;100.00;96114.50;4998851;28;20065;-71
2023/11/27 03:53:44;;;;;;;10.27;7.00;;;;;;;-1.08;100.00;96123.00;5020531;28;20037;-71
2023/11/27 03:56:09;;;;;;;10.93;6.90;;;;;;;-1.07;100.00;96110.34;4987315;28;20518;-71
2023/11/27 03:58:35;;;;;;;13.73;8.20;;;;;;;-1.06;100.00;96104.66;5013774;28;20053;-72
2023/11/27 04:01:04;;;;;;;12.18;7.35;;;;;;;-1.05;100.00;96100.88;5008516;28;20041;-71
2023/11/27 04:03:29;;;;;;;12.68;7.10;;;;;;;-1.11;100.00;96083.28;4993621;28;20049;-71
2023/11/27 04:05:55;;;;;;;10.48;6.72;;;;;;;-1.01;100.00;96084.91;4985679;28;20065;-72
2023/11/27 04:08:20;;;;;;;11.07;7.05;;;;;;;-1.06;100.00;96090.41;5014539;28;20400;-72
2023/11/27 04:10:45;;;;;;;10.27;6.97;;;;;;;-1.09;100.00;96081.09;5009550;28;20123;-72
2023/11/27 04:13:11;;;;;;;11.07;8.13;;;;;;;-1.14;100.00;96075.84;5006154;28;20061;-71
2023/11/27 04:15:36;;;;;;;15.68;8.32;;;;;;;-1.33;100.00;96072.53;5007522;28;20122;-72
2023/11/27 04:18:02;;;;;;;11.55;7.78;;;;;;;-1.49;100.00;96072.13;5007728;28;20042;-72
2023/11/27 04:20:27;;;;;;;10.13;7.05;;;;;;;-1.54;100.00;96070.34;5002417;28;20068;-71
2023/11/27 04:22:53;;;;;;;12.27;8.15;;;;;;;-1.66;100.00;96065.47;4998777;28;20060;-74
2023/11/27 04:25:18;;;;;;;10.63;7.57;;;;;;;-1.77;100.00;96069.50;5004573;28;20104;-74
2023/11/27 04:27:44;;;;;;;13.20;8.05;;;;;;;-1.74;100.00;96076.97;5003897;28;20124;-74
2023/11/27 04:30:09;;;;;;;12.80;7.32;;;;;;;-1.62;100.00;96073.72;5007371;28;20045;-73
2023/11/27 04:32:35;;;;;;;13.52;7.97;;;;;;;-1.54;100.00;96071.13;5007062;28;20502;-74
2023/11/27 04:35:00;;;;;;;12.75;7.60;;;;;;;-1.52;100.00;96068.13;4984262;28;20041;-72
2023/11/27 04:37:26;;;;;;;10.55;7.50;;;;;;;-1.57;100.00;96062.88;4994333;28;20045;-72
2023/11/27 04:39:52;;;;;;;11.90;7.47;;;;;;;-1.62;100.00;96065.66;5002432;28;20115;-73
2023/11/27 04:42:20;;;;;;;11.32;7.20;;;;;;;-1.71;100.00;96068.31;4986608;28;20033;-73
2023/11/27 04:44:46;;;;;;;11.40;7.70;;;;;;;-1.68;100.00;96056.94;4996208;28;20080;-73
2023/11/27 04:47:12;;;;;;;13.15;7.95;;;;;;;-1.67;100.00;96066.59;5016348;28;20160;-72
2023/11/27 04:49:37;;;;;;;10.48;7.50;;;;;;;-1.64;100.00;96066.00;5008081;28;20130;-73
2023/11/27 04:52:04;;;;;;;16.02;7.90;;;;;;;-1.62;100.00;96055.75;5019224;28;20048;-70
2023/11/27 04:54:30;;;;;;;12.68;7.80;;;;;;;-1.59;100.00;96060.50;5015754;28;20038;-71
2023/11/27 04:56:56;;;;;;;11.43;7.00;;;;;;;-1.56;100.00;96059.09;5013747;28;20034;-73
2023/11/27 04:59:22;;;;;;;13.95;7.30;;;;;;;-1.56;100.00;96064.47;5006117;28;20930;-72
2023/11/27 05:01:47;;;;;;;12.70;7.50;;;;;;;-1.56;100.00;96067.16;5010769;28;20523;-72
2023/11/27 05:04:17;;;;;;;16.33;7.20;;;;;;;-1.59;100.00;96065.06;4982620;28;20447;-71
2023/11/27 05:06:45;;;;;;;11.20;7.72;;;;;;;-1.65;100.00;96066.31;5022685;28;20563;-72
2023/11/27 05:09:12;;;;;;;13.25;7.95;;;;;;;-1.74;100.00;96060.84;4996121;28;20062;-72
2023/11/27 05:11:39;;;;;;;11.75;7.85;;;;;;;-1.71;100.00;96059.44;4988100;28;20065;-71
2023/11/27 05:14:04;;;;;;;18.33;10.55;;;;;;;-1.65;100.00;96059.03;4998170;28;20049;-70
2023/11/27 05:16:30;;;;;;;21.05;11.90;;;;;;;-1.61;100.00;96061.91;5017426;28;20030;-71
2023/11/27 05:18:55;;;;;;;13.07;8.88;;;;;;;-1.62;100.00;96054.94;5009300;28;20042;-73
2023/11/27 05:21:21;;;;;;;12.98;8.30;;;;;;;-1.55;100.00;96055.31;4996237;28;20400;-73
2023/11/27 05:23:47;;;;;;;13.90;7.93;;;;;;;-1.59;100.00;96059.69;5008943;28;20460;-72
2023/11/27 05:26:13;;;;;;;14.48;8.23;;;;;;;-1.64;100.00;96049.06;5006563;28;20045;-73
2023/11/27 05:28:42;;;;;;;15.65;9.63;;;;;;;-1.66;100.00;96044.00;5015194;28;20049;-73
2023/11/27 05:31:08;;;;;;;14.50;8.57;;;;;;;-1.62;100.00;96042.31;4998069;28;20103;-72
2023/11/27 05:33:34;;;;;;;17.73;11.43;;;;;;;-1.60;100.00;96042.03;5012947;28;20999;-71
2023/11/27 05:36:01;;;;;;;21.40;14.30;;;;;;;-1.68;100.00;96038.16;5011769;28;20041;-71
2023/11/27 05:38:28;;;;;;;22.27;13.80;;;;;;;-1.70;100.00;96042.25;5010444;28;20052;-71
2023/11/27 05:40:53;;;;;;;16.27;11.38;;;;;;;-1.67;100.00;96047.00;4980095;28;20129;-72
2023/11/27 05:43:19;;;;;;;14.23;10.77;;;;;;;-1.85;100.00;96046.88;5008399;28;20041;-72
2023/11/27 05:45:45;;;;;;;16.60;10.20;;;;;;;-1.79;100.00;96051.00;5012199;28;20041;-72
2023/11/27 05:48:11;;;;;;;13.88;8.85;;;;;;;-1.65;100.00;96047.50;5005138;28;20092;-71
2023/11/27 05:50:41;;;;;;;15.98;8.57;;;;;;;-1.54;100.00;96048.84;4990142;28;20136;-71
2023/11/27 05:53:09;;;;;;;15.00;7.93;;;;;;;-1.54;100.00;96046.94;4999338;28;20042;-71
2023/11/27 05:55:36;;;;;;;12.80;8.43;;;;;;;-1.52;100.00;96035.91;5020230;28;20062;-72
2023/11/27 05:58:03;;;;;;;18.33;10.18;;;;;;;-1.52;100.00;96037.81;5020765;28;20045;-69
2023/11/27 06:00:32;;;;;;;20.10;9.65;;;;;;;-1.63;100.00;96038.03;4986546;28;20045;-71
2023/11/27 06:02:57;;;;;;;13.68;8.48;;;;;;;-1.73;100.00;96040.94;5020837;28;20041;-71
2023/11/27 06:05:23;;;;;;;16.95;9.50;;;;;;;-1.73;100.00;96040.94;5015997;28;20804;-71
2023/11/27 06:07:49;;;;;;;13.18;8.13;;;;;;;-1.73;100.00;96039.06;5021533;28;20041;-70
2023/11/27 06:10:16;;;;;;;12.48;8.02;;;;;;;-1.77;100.00;96038.06;5016576;28;20045;-70
2023/11/27 06:12:42;;;;;;;17.08;8.93;;;;;;;-1.95;100.00;96030.97;5016100;28;20053;-71
2023/11/27 06:15:08;;;;;;;14.27;8.50;;;;;;;-2.14;100.00;96033.81;5014140;28;20514;-70
2023/11/27 06:17:33;;;;;;;15.90;8.18;;;;;;;-2.29;100.00;96029.53;5014735;28;20037;-71
2023/11/27 06:19:58;;;;;;;14.40;9.55;;;;;;;-2.37;100.00;96023.00;5020328;28;20116;-73
2023/11/27 06:22:25;;;;;;;15.13;8.23;;;;;;;-2.40;100.00;96023.59;5011875;28;20052;-71
2023/11/27 06:24:51;;;;;;;15.43;9.63;;;;;;;-2.44;100.00;96025.28;5006109;28;20037;-71
2023/11/27 06:27:16;;;;;;;13.32;9.35;;;;;;;-2.47;100.00;96019.72;5026863;28;20386;-71
2023/11/27 06:29:43;;;;;;;15.88;9.45;;;;;;;-2.39;100.00;96024.41;5014528;28;20057;-70
2023/11/27 06:32:08;;;;;;;13.50;8.88;;;;;;;-2.40;100.00;96012.06;5015940;28;20042;-72
2023/11/27 06:34:34;;;;;;;15.30;10.25;;;;;;;-2.32;100.00;96014.84;5018788;28;20052;-72
2023/11/27 06:36:59;;;;;;;22.48;10.38;;;;;;;-2.45;100.00;96010.28;5012140;28;20121;-71
2023/11/27 06:39:26;;;;;;;12.75;9.27;;;;;;;-2.52;100.00;96008.03;5003779;28;20080;-71
2023/11/27 06:41:53;;;;;;;16.92;9.68;;;;;;;-2.57;100.00;96004.66;5008728;28;20564;-71
2023/11/27 06:44:19;;;;;;;16.95;10.90;;;;;;;-2.62;100.00;96008.22;5006888;28;20216;-71
2023/11/27 06:46:45;;;;;;;20.35;12.43;;;;;;;-2.60;100.00;96019.44;5010091;28;20159;-70
2023/11/27 06:49:11;;;;;;;19.33;11.73;;;;;;;-2.55;100.00;96011.28;5005260;28;20045;-71
2023/11/27 06:51:37;;;;;;;17.77;10.32;;;;;;;-2.54;100.00;96020.94;5005770;28;20044;-72
2023/11/27 06:54:03;;;;;;;19.95;10.68;;;;;;;-2.52;100.00;96013.38;5004480;28;20046;-69
2023/11/27 06:56:33;;;;;;;22.40;11.30;;;;;;;-2.48;100.00;96016.25;4988738;28;20131;-71
2023/11/27 06:59:03;;;;;;;17.15;11.25;;;;;;;-2.45;100.00;96007.59;4999521;28;20415;-70
2023/11/27 07:01:29;;;;;;;23.77;13.85;;;;;;;-2.52;100.00;96012.56;5019191;28;20037;-72
2023/11/27 07:04:01;;;;;;;21.92;13.10;;;;;;;-2.46;100.00;96013.28;5012654;28;20041;-73
2023/11/27 07:06:26;;;;;;;18.38;12.40;;;;;;;-2.36;100.00;96010.38;5015870;28;20112;-72
2023/11/27 07:08:51;;;;;;;23.42;12.20;;;;;;;-2.31;100.00;96003.00;5019797;28;20132;-71
2023/11/27 07:11:17;;;;;;;22.17;14.10;;;;;;;-2.27;100.00;96008.56;5014778;28;20439;-72
2023/11/27 07:13:43;;;;;;;26.45;13.32;;;;;;;-2.34;100.00;96009.00;5012565;28;20669;-72
2023/11/27 07:16:08;;;;;;;23.42;12.95;;;;;;;-2.29;100.00;96005.41;4979841;28;20116;-71
2023/11/27 07:18:34;;;;;;;21.92;12.40;;;;;;;-2.18;100.00;96004.09;5008598;28;20046;-72
2023/11/27 07:21:00;;;;;;;22.02;12.77;;;;;;;-2.10;100.00;96004.50;5001956;28;20045;-71
2023/11/27 07:23:26;;;;;;;28.15;17.98;;;;;;;-2.08;100.00;96000.41;5002434;28;20053;-70
2023/11/27 07:25:53;;;;;;;99.55;51.40;;;;;;;-1.94;100.00;95998.47;5015161;28;20049;-69
2023/11/27 07:28:18;;;;;;;30.95;16.88;;;;;;;-1.69;100.00;96001.66;4997032;28;20064;-71
2023/11/27 07:30:44;;;;;;;20.50;12.75;;;;;;;-1.73;100.00;96000.66;5019735;28;20499;-73
2023/11/27 07:33:09;;;;;;;21.17;11.43;;;;;;;-1.56;100.00;95998.13;5012136;28;20068;-72
2023/11/27 07:35:35;;;;;;;19.67;11.40;;;;;;;-1.28;100.00;95991.81;5001844;28;20124;-72
2023/11/27 07:38:01;;;;;;;18.35;10.82;;;;;;;-1.07;100.00;95997.47;5010344;28;20056;-72
2023/11/27 07:40:27;;;;;;;17.30;10.25;;;;;;;-0.92;100.00;95993.56;5004531;28;20080;-72
2023/11/27 07:42:52;;;;;;;19.23;11.15;;;;;;;-1.05;100.00;95993.34;5011046;28;20487;-72
2023/11/27 07:45:19;;;;;;;20.85;11.00;;;;;;;-1.26;100.00;95990.41;5009448;28;20125;-71
2023/11/27 07:47:44;;;;;;;19.10;10.32;;;;;;;-1.11;100.00;95977.69;4993837;28;20037;-71
2023/11/27 07:50:10;;;;;;;16.10;10.55;;;;;;;-1.14;100.00;95986.38;5002721;28;20435;-71
2023/11/27 07:52:35;;;;;;;18.17;10.55;;;;;;;-1.12;100.00;95984.16;4996921;28;20037;-71
2023/11/27 07:55:04;;;;;;;19.95;10.40;;;;;;;-1.06;100.00;95990.97;5021548;28;20044;-71
2023/11/27 07:57:30;;;;;;;16.93;10.30;;;;;;;-1.18;100.00;95981.59;4990799;28;20104;-71
2023/11/27 07:59:55;;;;;;;25.05;10.52;;;;;;;-1.23;100.00;95986.31;5012336;28;20117;-72
2023/11/27 08:02:21;;;;;;;13.43;8.82;;;;;;;-1.22;100.00;95975.25;5014638;28;20141;-71
2023/11/27 08:04:46;;;;;;;20.95;10.40;;;;;;;-1.29;100.00;95987.56;5006189;28;20562;-71
2023/11/27 08:07:11;;;;;;;14.32;9.48;;;;;;;-1.04;100.00;95983.41;5002126;28;20045;-71
2023/11/27 08:09:40;;;;;;;22.85;10.70;;;;;;;-0.91;100.00;95982.50;5013316;28;20041;-71
2023/11/27 08:12:06;;;;;;;19.50;11.98;;;;;;;-1.26;100.00;95966.25;5011845;28;20038;-70
2023/11/27 08:14:32;;;;;;;16.55;10.90;;;;;;;-1.33;100.00;95967.75;5013821;28;20085;-72
2023/11/27 08:16:57;;;;;;;32.45;16.55;;;;;;;-1.37;100.00;95972.94;5006609;28;20073;-72
2023/11/27 08:19:22;;;;;;;28.30;14.00;;;;;;;-1.20;100.00;95962.31;5007474;28;20116;-72
2023/11/27 08:21:48;;;;;;;25.48;13.75;;;;;;;-1.02;100.00;95954.34;5013918;28;20045;-71
2023/11/27 08:24:14;;;;;;;22.23;13.70;;;;;;;-1.19;100.00;95958.53;4991954;28;20059;-72
2023/11/27 08:26:49;;;;;;;20.65;12.98;;;;;;;-1.29;100.00;95947.25;5022332;28;20045;-72
2023/11/27 08:29:15;;;;;;;19.70;12.93;;;;;;;-1.11;100.00;95962.34;5005823;28;20045;-71
2023/11/27 08:31:42;;;;;;;27.00;16.13;;;;;;;-1.04;100.00;95949.25;5011054;28;20046;-71
2023/11/27 08:34:07;;;;;;;25.55;15.07;;;;;;;-1.07;100.00;95935.66;5006423;28;20378;-72
2023/11/27 08:36:33;;;;;;;27.38;14.95;;;;;;;-1.21;100.00;95928.47;5012396;28;20103;-71
2023/11/27 08:38:58;;;;;;;74.05;26.92;;;;;;;-1.11;100.00;95930.09;5014503;28;20426;-72
2023/11/27 08:41:24;;;;;;;22.40;12.82;;;;;;;-1.12;100.00;95922.34;5005767;28;21008;-72
2023/11/27 08:43:50;;;;;;;24.80;13.50;;;;;;;-1.02;100.00;95919.38;5010038;28;20141;-71
2023/11/27 08:46:16;;;;;;;24.23;13.32;;;;;;;-0.98;100.00;95912.28;5012984;28;20060;-71
2023/11/27 08:48:41;;;;;;;25.60;15.05;;;;;;;-0.98;100.00;95899.63;5007804;28;20120;-72
2023/11/27 08:51:08;;;;;;;36.90;22.88;;;;;;;-1.05;100.00;95898.50;5013645;28;20136;-70
2023/11/27 08:53:33;;;;;;;33.70;22.00;;;;;;;-1.04;100.00;95867.84;5015035;28;20045;-72
2023/11/27 08:56:00;;;;;;;22.85;15.43;;;;;;;-0.83;100.00;95871.53;5014020;28;20038;-72
2023/11/27 08:58:26;;;;;;;26.88;15.38;;;;;;;-0.65;100.00;95904.63;5007486;28;20213;-71
2023/11/27 09:00:52;;;;;;;22.65;13.82;;;;;;;-0.34;100.00;95909.09;5016881;28;20064;-71
2023/11/27 09:03:18;;;;;;;23.38;14.68;;;;;;;-0.07;100.00;95899.13;5015647;28;20048;-72
2023/11/27 09:05:47;;;;;;;26.17;15.15;;;;;;;0.15;100.00;95908.94;5022737;28;20049;-72
2023/11/27 09:08:13;;;;;;;28.15;14.85;;;;;;;0.40;100.00;95903.81;5016298;28;20042;-72
2023/11/27 09:10:39;;;;;;;25.67;13.98;;;;;;;0.70;100.00;95892.03;5021680;28;20074;-72
2023/11/27 09:13:06;;;;;;;19.73;12.68;;;;;;;0.83;100.00;95887.53;5013130;28;20044;-71
2023/11/27 09:15:33;;;;;;;23.00;12.63;;;;;;;0.34;100.00;95874.38;5017280;28;20042;-71
2023/11/27 09:17:59;;;;;;;23.52;14.50;;;;;;;-0.03;100.00;95865.09;4993282;28;20739;-71
2023/11/27 09:20:25;;;;;;;22.55;14.50;;;;;;;0.06;100.00;95870.47;5008251;28;20439;-71
2023/11/27 09:22:52;;;;;;;25.45;14.18;;;;;;;0.42;100.00;95871.97;5015969;28;20034;-73
2023/11/27 09:25:17;;;;;;;24.02;12.70;;;;;;;0.40;100.00;95858.00;5001430;28;20129;-72
2023/11/27 09:27:43;;;;;;;19.42;11.70;;;;;;;0.70;100.00;95875.84;5013861;28;20220;-71
2023/11/27 09:30:09;;;;;;;19.40;12.45;;;;;;;1.11;100.00;95865.50;5007999;28;20052;-69
2023/11/27 09:32:43;;;;;;;21.40;13.00;;;;;;;1.49;100.00;95861.94;4997247;28;20544;-73
2023/11/27 09:35:15;;;;;;;19.90;12.43;;;;;;;1.83;100.00;95850.06;4982246;28;20037;-70
2023/11/27 09:37:43;;;;;;;25.13;14.75;;;;;;;1.79;100.00;95843.75;5008409;28;20042;-72
2023/11/27 09:40:15;;;;;;;29.27;17.25;;;;;;;1.17;100.00;95836.44;4995956;28;20107;-70
2023/11/27 09:42:40;;;;;;;31.48;17.15;;;;;;;1.39;100.00;95849.63;5010265;28;20049;-71
2023/11/27 09:45:07;;;;;;;26.88;15.57;;;;;;;1.66;100.00;95839.44;5007502;28;20046;-70
2023/11/27 09:47:34;;;;;;;29.05;14.38;;;;;;;2.04;100.00;95825.75;5022037;28;20053;-70
2023/11/27 09:50:02;;;;;;;21.88;12.40;;;;;;;2.47;100.00;95823.72;4980753;28;20132;-70
2023/11/27 09:52:57;;;;;;;26.73;14.80;;;;;;;2.18;100.00;95806.56;4996694;28;20042;-71
2023/11/27 09:55:23;;;;;;;27.98;15.27;;;;;;;1.89;100.00;95807.44;4996714;28;20056;-71
2023/11/27 09:57:49;;;;;;;24.23;14.55;;;;;;;2.13;100.00;95795.94;5016870;28;20041;-72
2023/11/27 10:00:19;;;;;;;21.20;12.93;;;;;;;1.95;100.00;95802.66;5007630;28;20750;-71
2023/11/27 10:02:49;;;;;;;24.63;13.38;;;;;;;2.34;100.00;95804.00;5008591;28;20088;-71
2023/11/27 10:05:21;;;;;;;25.52;15.00;;;;;;;2.29;100.00;95785.31;5005907;28;20746;-70
2023/11/27 10:07:49;;;;;;;24.95;13.48;;;;;;;2.41;100.00;95788.03;5015051;28;20061;-71
2023/11/27 10:10:25;;;;;;;19.30;12.80;;;;;;;2.69;100.00;95779.25;4995450;28;20682;-71
2023/11/27 10:12:51;;;;;;;17.95;12.32;;;;;;;2.73;100.00;95774.72;5003791;28;20057;-71
2023/11/27 10:15:17;;;;;;;20.00;11.85;;;;;;;3.09;100.00;95765.00;5004474;28;20034;-71
2023/11/27 10:17:43;;;;;;;19.48;11.73;;;;;;;2.97;100.00;95751.50;5009962;28;20425;-71
2023/11/27 10:20:12;;;;;;;15.68;10.88;;;;;;;2.41;100.00;95746.69;5014479;28;20384;-71
2023/11/27 10:22:40;;;;;;;20.75;12.10;;;;;;;2.80;100.00;95747.13;5019736;28;20030;-71
2023/11/27 10:25:08;;;;;;;18.20;11.57;;;;;;;3.32;100.00;95724.72;5003343;28;20132;-71
2023/11/27 10:27:33;;;;;;;19.08;12.05;;;;;;;3.77;100.00;95734.47;5011765;28;20478;-70
2023/11/27 10:30:00;;;;;;;24.55;11.43;;;;;;;3.88;100.00;95717.72;5005156;28;20034;-70
2023/11/27 10:32:27;;;;;;;18.05;11.13;;;;;;;3.88;100.00;95717.72;4996344;28;20139;-69
2023/11/27 10:34:53;;;;;;;16.27;9.70;;;;;;;4.38;100.00;95713.56;4997739;28;20037;-70
2023/11/27 10:37:18;;;;;;;15.95;10.00;;;;;;;4.58;100.00;95703.56;4996163;28;20088;-70
2023/11/27 10:39:48;;;;;;;13.88;8.98;;;;;;;4.51;100.00;95701.47;4987813;28;20121;-70
2023/11/27 10:42:18;;;;;;;;;;;;;;;4.76;100.00;95696.63;5015184;28;20159;-70
2023/11/27 10:44:47;;;;;;;11.68;8.10;;;;;;;4.69;100.00;95693.75;5009610;28;19913;-70
2023/11/27 10:47:14;;;;;;;13.30;7.30;;;;;;;4.94;100.00;95686.16;5005701;28;20535;-71
2023/11/27 10:49:40;;;;;;;19.02;8.80;;;;;;;5.10;100.00;95677.97;4999275;28;20520;-70
2023/11/27 10:52:11;;;;;;;13.52;7.75;;;;;;;5.23;100.00;95675.13;4976821;28;20400;-70
2023/11/27 10:54:40;;;;;;;18.02;8.23;;;;;;;5.49;100.00;95667.13;4982176;28;20026;-70
2023/11/27 10:57:07;;;;;;;17.03;7.53;;;;;;;5.40;100.00;95655.66;5001355;28;20045;-70
2023/11/27 10:59:37;;;;;;;10.27;6.35;;;;;;;5.59;100.00;95637.81;5007582;28;20285;-71
2023/11/27 11:02:04;;;;;;;13.55;6.60;;;;;;;5.62;100.00;95627.00;4998492;28;20076;-70
2023/11/27 11:04:50;;;;;;;12.57;6.28;;;;;;;5.59;100.00;95633.16;5004965;28;20041;-71
2023/11/27 11:07:19;;;;;;;10.65;5.22;;;;;;;5.64;100.00;95623.94;5005236;28;20443;-71
2023/11/27 11:09:55;;;;;;;16.02;6.15;;;;;;;5.53;100.00;95626.44;5013462;28;20034;-71
2023/11/27 11:12:23;;;;;;;7.30;4.90;;;;;;;5.48;100.00;95622.09;4994074;28;20049;-69
2023/11/27 11:14:50;;;;;;;9.02;4.85;;;;;;;5.49;100.00;95612.81;5010576;28;20045;-70